Time;durP1;ratioP1;P1;durP2;ratioP2;P2;SDS_P1;SDS_P2;PMS_P1;PMS_P2;Temp;Humidity;BMP_temperature;BMP_pressure;BME280_temperature;BME280_humidity;BME280_pressure;Samples;Min_cycle;Max_cycle;Signal;HPM_P1;HPM_P2
2023/05/17 00:37:42;;;;;;;7.10;5.70;;;;;;;20.37;42.47;100303.89;109255;1257;558305;-89
2023/05/17 00:40:11;;;;;;;8.70;5.60;;;;;;;20.37;42.48;100296.23;109168;1258;553915;-92
2023/05/17 00:42:37;;;;;;;7.30;5.40;;;;;;;20.38;42.43;100284.47;109467;1259;67682;-86
2023/05/17 00:45:03;;;;;;;5.90;5.30;;;;;;;20.38;42.52;100284.61;109515;1258;67588;-86
2023/05/17 00:47:28;;;;;;;8.80;5.20;;;;;;;20.38;42.33;100278.64;109448;1259;67675;-86
2023/05/17 00:49:54;;;;;;;8.50;5.20;;;;;;;20.39;42.44;100265.77;109538;1259;67255;-86
2023/05/17 00:52:19;;;;;;;6.20;5.00;;;;;;;20.39;42.35;100262.98;109506;1259;67675;-85
2023/05/17 00:54:45;;;;;;;5.90;5.20;;;;;;;20.39;42.41;100256.25;109473;1259;67588;-86
2023/05/17 00:57:20;;;;;;;6.90;5.00;;;;;;;20.39;42.25;100255.29;109381;1260;67468;-90
2023/05/17 00:59:45;;;;;;;5.90;5.30;;;;;;;20.39;42.35;100255.90;109410;1260;83784;-85
2023/05/17 01:02:11;;;;;;;7.00;5.30;;;;;;;20.39;42.16;100258.45;109472;1259;67408;-85
2023/05/17 01:04:37;;;;;;;6.80;5.40;;;;;;;20.38;42.41;100248.02;109529;1260;67573;-86
2023/05/17 01:07:02;;;;;;;6.10;5.40;;;;;;;20.38;42.37;100240.98;109397;1260;67701;-86
2023/05/17 01:09:28;;;;;;;8.20;5.30;;;;;;;20.39;42.38;100237.80;109517;1259;67811;-86
2023/05/17 01:12:23;;;;;;;7.40;5.50;;;;;;;20.39;42.27;100234.02;109241;1260;73144;-85
2023/05/17 01:17:57;;;;;;;7.90;5.20;;;;;;;20.38;42.33;100231.37;109590;1257;68180;-85
2023/05/17 01:20:36;;;;;;;8.60;5.80;;;;;;;20.38;42.20;100234.84;109560;1257;75701;-86
2023/05/17 01:23:32;;;;;;;5.90;4.90;;;;;;;20.37;42.22;100233.83;109475;1257;82948;-85
2023/05/17 01:26:14;;;;;;;7.30;5.30;;;;;;;20.37;42.40;100241.64;109604;1258;72932;-85
2023/05/17 01:28:39;;;;;;;6.90;5.00;;;;;;;20.37;42.28;100241.39;109679;1257;67527;-85
2023/05/17 01:31:05;;;;;;;6.70;5.00;;;;;;;20.37;42.24;100234.33;109704;1257;67938;-86
2023/05/17 01:33:30;;;;;;;7.00;5.20;;;;;;;20.37;42.26;100237.15;109684;1257;67274;-85
2023/05/17 01:38:38;;;;;;;8.00;5.50;;;;;;;20.37;42.32;100227.48;109523;1261;72412;-85
2023/05/17 01:41:03;;;;;;;6.80;5.20;;;;;;;20.37;42.31;100231.42;109311;1262;67713;-86
2023/05/17 01:43:53;;;;;;;6.80;5.00;;;;;;;20.37;42.23;100230.30;109344;1262;68606;-86
2023/05/17 01:46:25;;;;;;;7.00;5.60;;;;;;;20.36;42.35;100230.77;109357;1262;75101;-85
2023/05/17 01:48:55;;;;;;;8.30;5.60;;;;;;;20.36;42.31;100228.25;109220;1262;83102;-86
2023/05/17 01:51:21;;;;;;;5.90;5.30;;;;;;;20.37;42.22;100234.89;109128;1263;73381;-86
2023/05/17 01:56:33;;;;;;;5.30;4.80;;;;;;;20.36;42.28;100238.21;109392;1259;66951;-85
2023/05/17 01:58:59;;;;;;;7.00;5.40;;;;;;;20.36;42.15;100237.35;109349;1260;67698;-85
2023/05/17 02:01:24;;;;;;;8.30;5.50;;;;;;;20.36;42.27;100241.27;109361;1260;67664;-86
2023/05/17 02:03:50;;;;;;;5.90;5.00;;;;;;;20.37;42.32;100244.71;109360;1259;67720;-86
2023/05/17 02:06:16;;;;;;;7.50;5.50;;;;;;;20.36;42.19;100249.30;109470;1260;67502;-86
2023/05/17 02:08:41;;;;;;;7.70;5.20;;;;;;;20.36;42.32;100246.89;109338;1260;75123;-86
2023/05/17 02:11:07;;;;;;;6.20;5.10;;;;;;;20.36;42.12;100244.40;109343;1260;67143;-85
2023/05/17 02:13:32;;;;;;;7.10;5.50;;;;;;;20.36;42.21;100245.08;109435;1260;66896;-86
2023/05/17 02:16:02;;;;;;;5.50;4.90;;;;;;;20.36;42.23;100244.50;109434;1259;67560;-85
2023/05/17 02:18:27;;;;;;;7.60;5.40;;;;;;;20.36;42.30;100242.52;109290;1259;67594;-86
2023/05/17 02:21:02;;;;;;;8.40;5.40;;;;;;;20.36;42.17;100238.84;109467;1259;67506;-91
2023/05/17 02:23:28;;;;;;;6.20;5.50;;;;;;;20.36;42.30;100239.23;109403;1260;83961;-86
2023/05/17 02:25:53;;;;;;;6.60;5.30;;;;;;;20.36;42.24;100245.98;109428;1260;67667;-85
2023/05/17 02:28:19;;;;;;;6.80;5.20;;;;;;;20.36;42.15;100252.98;109304;1260;67267;-86
2023/05/17 02:30:44;;;;;;;6.70;5.20;;;;;;;20.36;42.20;100249.47;109432;1260;67786;-86
2023/05/17 02:33:10;;;;;;;8.20;5.30;;;;;;;20.35;42.15;100255.49;109481;1260;66922;-86
2023/05/17 02:35:35;;;;;;;7.00;5.40;;;;;;;20.35;42.37;100257.02;109384;1260;67595;-86
2023/05/17 02:38:01;;;;;;;7.30;5.30;;;;;;;20.35;42.06;100251.56;109418;1260;67612;-85
2023/05/17 02:40:26;;;;;;;6.70;5.10;;;;;;;20.35;42.16;100252.48;109444;1260;67825;-86
2023/05/17 02:42:52;;;;;;;6.30;5.10;;;;;;;20.35;42.22;100255.05;109341;1260;66939;-86
2023/05/17 02:45:17;;;;;;;6.50;5.20;;;;;;;20.35;42.26;100258.97;109414;1260;67844;-86
2023/05/17 02:50:23;;;;;;;10.80;5.30;;;;;;;20.35;42.25;100249.58;109427;1260;67484;-86
2023/05/17 02:52:49;;;;;;;6.80;5.50;;;;;;;20.35;42.18;100252.33;109309;1259;67736;-85
2023/05/17 02:55:14;;;;;;;7.10;5.00;;;;;;;20.34;42.22;100236.84;109426;1260;67572;-86
2023/05/17 02:57:40;;;;;;;6.30;5.60;;;;;;;20.34;42.19;100234.81;109415;1259;66961;-85
2023/05/17 03:00:08;;;;;;;9.00;6.00;;;;;;;20.34;42.23;100233.42;109531;1260;67654;-86
2023/05/17 03:02:34;;;;;;;4.80;3.90;;;;;;;20.34;42.28;100228.27;109421;1260;75146;-86
2023/05/17 03:04:59;;;;;;;6.40;4.50;;;;;;;20.36;42.52;100227.79;109440;1260;67785;-86
2023/05/17 03:07:25;;;;;;;9.00;6.30;;;;;;;20.38;42.77;100227.17;109605;1260;67696;-85
2023/05/17 03:09:51;;;;;;;7.80;5.80;;;;;;;20.39;43.07;100226.62;109482;1259;67469;-85
2023/05/17 03:12:16;;;;;;;10.90;5.60;;;;;;;20.40;42.93;100225.90;109578;1260;67471;-86
2023/05/17 03:14:50;;;;;;;10.00;5.70;;;;;;;20.38;43.01;100225.54;109626;1259;82945;-89
2023/05/17 03:17:16;;;;;;;9.60;6.20;;;;;;;20.37;42.97;100223.66;109574;1259;72351;-85
2023/05/17 03:19:41;;;;;;;10.80;6.60;;;;;;;20.35;42.86;100227.13;109481;1260;67574;-85
2023/05/17 03:22:07;;;;;;;7.30;5.30;;;;;;;20.34;42.91;100233.38;109560;1260;67805;-86
2023/05/17 03:24:33;;;;;;;16.90;6.00;;;;;;;20.32;43.06;100233.52;109461;1260;67250;-85
2023/05/17 03:26:58;;;;;;;8.60;5.30;;;;;;;20.29;43.10;100238.02;109458;1261;66983;-85
2023/05/17 03:29:24;;;;;;;11.70;5.20;;;;;;;20.27;43.33;100238.64;109427;1259;67824;-86
2023/05/17 03:31:49;;;;;;;12.00;5.30;;;;;;;20.25;43.29;100238.48;109414;1261;66954;-86
2023/05/17 03:34:15;;;;;;;14.70;5.40;;;;;;;20.22;43.43;100229.34;109463;1260;67334;-85
2023/05/17 03:36:40;;;;;;;22.50;11.10;;;;;;;20.20;43.40;100219.34;109481;1260;67696;-86
2023/05/17 03:39:06;;;;;;;24.70;13.80;;;;;;;20.17;43.26;100213.52;109548;1259;67674;-86
2023/05/17 03:41:47;;;;;;;20.80;16.20;;;;;;;20.15;43.34;100203.61;109487;1260;67600;-91
2023/05/17 03:44:12;;;;;;;19.90;12.90;;;;;;;20.16;43.41;100188.17;109423;1260;74969;-86
2023/05/17 03:46:38;;;;;;;33.30;24.20;;;;;;;20.15;43.28;100173.21;109454;1260;67603;-86
2023/05/17 03:49:04;;;;;;;37.10;24.40;;;;;;;20.16;43.31;100177.75;109515;1260;67679;-86
2023/05/17 03:51:29;;;;;;;36.80;26.70;;;;;;;20.15;43.28;100192.93;109412;1260;67241;-86
2023/05/17 03:53:58;;;;;;;42.80;32.80;;;;;;;20.16;43.27;100199.27;109395;1260;67829;-86
2023/05/17 03:59:07;;;;;;;44.50;35.40;;;;;;;20.15;43.16;100191.66;109403;1260;72197;-86
2023/05/17 04:01:32;;;;;;;38.30;26.70;;;;;;;20.15;43.27;100202.94;109250;1261;67704;-86
2023/05/17 04:04:00;;;;;;;34.80;22.00;;;;;;;20.15;43.14;100210.39;109408;1261;66973;-86
2023/05/17 04:06:25;;;;;;;27.60;20.40;;;;;;;20.15;43.04;100215.86;109202;1263;67567;-86
2023/05/17 04:08:52;;;;;;;28.90;19.50;;;;;;;20.14;43.10;100220.71;109321;1266;67923;-86
2023/05/17 04:11:22;;;;;;;30.80;19.30;;;;;;;20.14;43.08;100234.51;109270;1260;67597;-87
2023/05/17 04:13:54;;;;;;;23.30;12.60;;;;;;;20.14;43.03;100241.97;109522;1257;68019;-87
2023/05/17 04:16:19;;;;;;;17.90;11.90;;;;;;;20.15;43.00;100244.42;109638;1257;67782;-88
2023/05/17 04:18:45;;;;;;;21.20;9.90;;;;;;;20.15;43.04;100240.89;109718;1257;67598;-88
2023/05/17 04:21:11;;;;;;;15.50;8.90;;;;;;;20.15;43.09;100239.52;109730;1257;67663;-87
2023/05/17 04:23:36;;;;;;;18.20;8.60;;;;;;;20.14;43.01;100242.21;109706;1257;67632;-88
2023/05/17 04:26:03;;;;;;;17.20;9.50;;;;;;;20.14;43.02;100243.45;109739;1257;66908;-88
2023/05/17 04:28:29;;;;;;;18.30;7.70;;;;;;;20.14;42.99;100259.02;109628;1257;75009;-87
2023/05/17 04:30:55;;;;;;;13.50;6.40;;;;;;;20.13;42.91;100262.91;109606;1263;68296;-87
2023/05/17 04:33:20;;;;;;;14.00;6.70;;;;;;;20.13;42.91;100259.79;109607;1257;67942;-85
2023/05/17 04:35:46;;;;;;;14.30;5.70;;;;;;;20.13;43.11;100255.96;109524;1261;67617;-89
2023/05/17 04:38:15;;;;;;;13.30;6.40;;;;;;;20.12;43.00;100247.59;109709;1258;67215;-92
2023/05/17 04:41:08;;;;;;;13.40;5.80;;;;;;;20.11;43.06;100241.82;109675;1262;82792;-90
2023/05/17 04:43:35;;;;;;;14.50;5.60;;;;;;;20.11;43.05;100242.08;109572;1259;73482;-89
2023/05/17 04:48:57;;;;;;;16.00;5.00;;;;;;;20.12;43.15;100265.98;109653;1257;68085;-89
2023/05/17 04:51:23;;;;;;;9.90;5.00;;;;;;;20.14;43.04;100278.29;109609;1258;67300;-88
2023/05/17 04:53:48;;;;;;;21.00;5.70;;;;;;;20.16;43.02;100282.98;109525;1257;67608;-86
2023/05/17 04:58:55;;;;;;;13.20;5.20;;;;;;;20.19;43.19;100284.67;109250;1261;66866;-85
2023/05/17 05:01:21;;;;;;;14.00;5.00;;;;;;;20.20;43.31;100291.57;109134;1260;68055;-84
2023/05/17 05:03:49;;;;;;;15.90;5.30;;;;;;;20.21;43.33;100291.58;109346;1260;67319;-88
2023/05/17 05:06:16;;;;;;;14.30;5.20;;;;;;;20.22;43.30;100293.88;109011;1261;82870;-86
2023/05/17 05:08:41;;;;;;;16.00;5.10;;;;;;;20.21;43.29;100290.45;109119;1262;72346;-87
2023/05/17 05:11:07;;;;;;;15.20;5.20;;;;;;;20.21;43.19;100279.67;109229;1260;67205;-87
2023/05/17 05:13:33;;;;;;;21.30;5.60;;;;;;;20.21;43.29;100279.92;109344;1260;67694;-88
2023/05/17 05:15:59;;;;;;;20.90;5.90;;;;;;;20.21;43.45;100281.60;109516;1260;67621;-86
2023/05/17 05:18:25;;;;;;;17.60;5.40;;;;;;;20.21;43.45;100282.54;109367;1260;67874;-87
2023/05/17 05:20:51;;;;;;;23.60;6.10;;;;;;;20.20;43.40;100283.34;109144;1260;67771;-86
2023/05/17 05:23:19;;;;;;;20.10;5.40;;;;;;;20.20;43.57;100284.22;109328;1261;67276;-90
2023/05/17 05:25:45;;;;;;;17.20;5.60;;;;;;;20.20;43.72;100282.98;109308;1261;75262;-87
2023/05/17 05:28:11;;;;;;;20.10;6.00;;;;;;;20.22;43.77;100293.30;109248;1260;68061;-89
2023/05/17 05:30:37;;;;;;;20.80;6.10;;;;;;;20.23;43.94;100293.77;109344;1260;67411;-90
2023/05/17 05:33:03;;;;;;;18.80;6.70;;;;;;;20.24;43.76;100298.00;109291;1260;67568;-89
2023/05/17 05:35:29;;;;;;;20.80;9.70;;;;;;;20.26;43.96;100297.95;109173;1260;67657;-86
2023/05/17 05:37:58;;;;;;;19.70;9.00;;;;;;;20.27;44.28;100288.90;109203;1260;67517;-88
2023/05/17 05:40:24;;;;;;;18.20;8.70;;;;;;;20.27;44.33;100281.10;109151;1260;68033;-87
2023/05/17 05:42:52;;;;;;;14.50;8.20;;;;;;;20.28;44.47;100274.80;109192;1261;67535;-89
2023/05/17 05:48:40;;;;;;;19.50;8.60;;;;;;;20.27;44.40;100264.48;109480;1260;67646;-85
2023/05/17 05:51:06;;;;;;;18.20;8.10;;;;;;;20.27;44.52;100272.82;109341;1259;68108;-83
2023/05/17 05:53:32;;;;;;;16.90;8.10;;;;;;;20.28;44.55;100281.60;109346;1260;67074;-86
2023/05/17 05:58:31;;;;;;;21.90;9.00;;;;;;;20.29;44.78;100296.78;109545;1257;67347;-86
2023/05/17 06:00:58;;;;;;;24.60;9.40;;;;;;;20.30;44.92;100310.07;109488;1257;68043;-88
2023/05/17 06:03:24;;;;;;;23.50;9.50;;;;;;;20.32;44.98;100313.48;109268;1257;67515;-84
2023/05/17 06:05:50;;;;;;;21.00;9.20;;;;;;;20.33;45.11;100299.05;109363;1257;67944;-84
2023/05/17 06:08:16;;;;;;;22.40;9.50;;;;;;;20.35;45.29;100290.48;109547;1258;67353;-87
2023/05/17 06:10:41;;;;;;;24.40;9.90;;;;;;;20.36;45.35;100290.75;109534;1259;68089;-87
2023/05/17 06:13:07;;;;;;;14.90;9.90;;;;;;;20.37;45.36;100297.18;109605;1258;67278;-88
2023/05/17 06:15:33;;;;;;;20.20;10.20;;;;;;;20.38;45.44;100299.48;109621;1257;82075;-89
2023/05/17 06:18:11;;;;;;;21.80;10.90;;;;;;;20.38;45.52;100300.66;109653;1259;68531;-89
2023/05/17 06:20:56;;;;;;;25.60;10.40;;;;;;;20.38;45.75;100296.48;109643;1259;68094;-89
2023/05/17 06:42:30;;;;;;;20.00;10.00;;;;;;;20.35;46.60;100311.40;109701;1257;74945;-89
2023/05/17 06:44:56;;;;;;;18.00;10.10;;;;;;;20.36;46.46;100313.48;109455;1260;82877;-90
2023/05/17 06:51:00;;;;;;;15.90;9.30;;;;;;;20.35;46.80;100312.41;109636;1258;67191;-90
2023/05/17 06:53:26;;;;;;;19.80;9.50;;;;;;;20.36;47.00;100310.22;109572;1258;68042;-88
2023/05/17 06:55:55;;;;;;;19.80;10.20;;;;;;;20.36;46.77;100312.67;109461;1260;68091;-84
2023/05/17 06:58:34;;;;;;;18.20;10.30;;;;;;;20.37;47.06;100313.48;109633;1258;82791;-89
2023/05/17 07:03:55;;;;;;;22.40;11.00;;;;;;;20.38;47.01;100316.59;109641;1257;67340;-88
2023/05/17 07:09:12;;;;;;;17.20;10.20;;;;;;;20.40;47.10;100320.39;109739;1257;76087;-89
2023/05/17 07:14:37;;;;;;;18.10;9.80;;;;;;;20.42;47.30;100325.29;109660;1258;73184;-90
2023/05/17 07:23:43;;;;;;;21.40;12.70;;;;;;;20.43;47.22;100331.23;109441;1261;74778;-89
2023/05/17 07:26:12;;;;;;;16.80;13.70;;;;;;;20.45;47.57;100332.41;109458;1265;82993;-89
2023/05/17 07:31:25;;;;;;;25.00;10.90;;;;;;;20.46;47.45;100332.25;109600;1260;65690;-86
2023/05/17 07:33:50;;;;;;;21.20;10.30;;;;;;;20.45;47.46;100329.38;109277;1264;67004;-86
2023/05/17 07:54:20;;;;;;;24.80;15.90;;;;;;;20.37;47.71;100340.10;109786;1257;83070;-88
2023/05/17 07:56:46;;;;;;;26.00;16.90;;;;;;;20.39;47.92;100342.56;109423;1259;72543;-88
2023/05/17 07:59:11;;;;;;;29.90;17.00;;;;;;;20.41;48.05;100342.20;109601;1257;67248;-88
2023/05/17 08:07:51;;;;;;;32.10;14.60;;;;;;;20.43;48.04;100355.81;109376;1260;83218;-93
2023/05/17 08:10:16;;;;;;;22.30;12.90;;;;;;;20.44;48.09;100359.45;109402;1260;72598;-89
2023/05/17 08:12:43;;;;;;;20.00;13.30;;;;;;;20.43;48.11;100365.92;109497;1260;67079;-88
2023/05/17 08:15:09;;;;;;;22.40;13.00;;;;;;;20.42;48.15;100363.16;109485;1259;67572;-89
2023/05/17 08:17:35;;;;;;;19.40;12.50;;;;;;;20.42;48.20;100363.11;109496;1260;66998;-88
2023/05/17 08:20:01;;;;;;;18.80;11.90;;;;;;;20.41;48.43;100361.23;109624;1259;72079;-86
2023/05/17 08:25:04;;;;;;;18.20;9.80;;;;;;;20.43;48.61;100359.08;109598;1256;68104;-87
2023/05/17 08:27:31;;;;;;;17.50;9.90;;;;;;;20.44;48.62;100361.23;109452;1257;67865;-88
2023/05/17 08:29:57;;;;;;;18.90;9.50;;;;;;;20.43;48.65;100362.45;109434;1265;75134;-87
2023/05/17 08:32:39;;;;;;;16.60;9.80;;;;;;;20.43;48.67;100368.48;109734;1257;68010;-89
2023/05/17 08:35:05;;;;;;;15.50;8.70;;;;;;;20.43;48.71;100371.80;109569;1257;72114;-87
2023/05/17 08:37:39;;;;;;;14.90;8.20;;;;;;;20.42;48.73;100369.70;109561;1257;67993;-93
2023/05/17 08:42:53;;;;;;;16.70;7.50;;;;;;;20.38;48.67;100371.39;109650;1257;74290;-91
2023/05/17 09:05:59;;;;;;;14.50;8.00;;;;;;;20.42;48.82;100367.81;109646;1257;67441;-89
2023/05/17 09:08:25;;;;;;;15.40;7.90;;;;;;;20.43;49.16;100368.08;109521;1257;67842;-86
2023/05/17 09:25:38;;;;;;;19.70;12.40;;;;;;;20.45;49.48;100362.20;109538;1260;74154;-88
2023/05/17 09:30:43;;;;;;;26.60;13.00;;;;;;;20.46;49.62;100369.09;109602;1257;73534;-89
2023/05/17 09:33:17;;;;;;;20.30;11.70;;;;;;;20.45;49.68;100360.83;109623;1256;66823;-86
2023/05/17 09:35:51;;;;;;;20.10;14.20;;;;;;;20.44;49.78;100357.30;109556;1257;67809;-90
2023/05/17 09:53:31;;;;;;;16.50;10.70;;;;;;;20.39;50.09;100363.00;109780;1260;74346;-91
2023/05/17 09:58:43;;;;;;;24.20;11.40;;;;;;;20.43;50.25;100356.37;109813;1256;73471;-88
2023/05/17 10:01:31;;;;;;;21.20;11.20;;;;;;;20.46;50.43;100358.17;109715;1256;67638;-92
2023/05/17 10:04:00;;;;;;;17.20;10.50;;;;;;;20.49;50.52;100356.57;109700;1256;67378;-91
2023/05/17 10:06:29;;;;;;;23.10;12.10;;;;;;;20.52;50.67;100357.48;109679;1260;76084;-88
2023/05/17 10:08:56;;;;;;;21.50;12.10;;;;;;;20.55;50.79;100356.93;109677;1256;82208;-88
2023/05/17 10:11:45;;;;;;;22.30;13.20;;;;;;;20.60;50.82;100361.07;109656;1257;73380;-89
2023/05/17 10:28:16;;;;;;;22.10;15.10;;;;;;;20.63;51.07;100352.95;109923;1256;66880;-90
2023/05/17 10:39:07;;;;;;;17.30;11.90;;;;;;;20.58;51.62;100350.80;109527;1260;73083;-89
2023/05/17 10:41:43;;;;;;;20.00;11.60;;;;;;;20.58;51.45;100344.97;109590;1258;68095;-87
2023/05/17 10:44:10;;;;;;;19.60;11.90;;;;;;;20.57;51.49;100346.30;109656;1257;67966;-87
2023/05/17 10:46:36;;;;;;;18.30;11.70;;;;;;;20.55;51.52;100344.67;109518;1257;75433;-89
2023/05/17 10:49:10;;;;;;;15.80;10.00;;;;;;;20.56;51.65;100340.52;109573;1260;67411;-92
2023/05/17 10:51:36;;;;;;;20.30;10.80;;;;;;;20.55;51.70;100341.40;109511;1260;72478;-88
2023/05/17 10:54:10;;;;;;;17.30;10.50;;;;;;;20.55;51.77;100342.68;109531;1260;67780;-90
2023/05/17 10:59:26;;;;;;;22.40;10.00;;;;;;;20.56;51.82;100341.39;109724;1257;75575;-89
2023/05/17 11:02:13;;;;;;;17.30;9.70;;;;;;;20.56;51.85;100339.96;109593;1257;83823;-85
2023/05/17 11:04:40;;;;;;;19.00;9.30;;;;;;;20.55;51.84;100342.58;109545;1257;71476;-84
2023/05/17 11:07:19;;;;;;;18.50;8.00;;;;;;;20.55;51.65;100338.02;109441;1257;67653;-86
2023/05/17 11:09:45;;;;;;;13.10;7.00;;;;;;;20.54;51.94;100335.98;109532;1257;68036;-86
2023/05/17 11:12:12;;;;;;;13.20;7.60;;;;;;;20.54;52.02;100336.02;109424;1258;74983;-84
2023/05/17 11:14:44;;;;;;;11.50;6.60;;;;;;;20.60;52.20;100339.04;109500;1258;82805;-85
2023/05/17 11:17:13;;;;;;;11.40;7.10;;;;;;;20.65;52.25;100338.78;109612;1257;73152;-85
2023/05/17 11:19:48;;;;;;;12.60;7.30;;;;;;;20.68;52.36;100335.56;109565;1257;67596;-86
2023/05/17 11:22:14;;;;;;;16.00;6.80;;;;;;;20.72;52.31;100333.35;109491;1260;67718;-85
2023/05/17 11:24:40;;;;;;;12.10;6.80;;;;;;;20.76;52.05;100329.57;109459;1257;67761;-85
2023/05/17 11:27:06;;;;;;;13.50;7.20;;;;;;;20.79;52.16;100321.42;109483;1257;67962;-84
2023/05/17 11:29:38;;;;;;;14.20;6.90;;;;;;;20.79;51.93;100318.34;109570;1257;72493;-85
2023/05/17 11:32:07;;;;;;;14.80;6.90;;;;;;;20.79;51.78;100314.81;109455;1257;67943;-84
2023/05/17 11:34:33;;;;;;;14.40;6.50;;;;;;;20.78;51.74;100308.58;109357;1257;67425;-84
2023/05/17 11:36:58;;;;;;;9.80;6.50;;;;;;;20.78;51.71;100306.58;109370;1258;67062;-85
2023/05/17 11:39:25;;;;;;;12.60;6.70;;;;;;;20.78;51.84;100306.11;109507;1257;67625;-84
2023/05/17 11:41:52;;;;;;;10.80;5.90;;;;;;;20.79;51.83;100299.17;109397;1257;67641;-84
2023/05/17 11:44:31;;;;;;;10.70;5.80;;;;;;;20.81;51.92;100295.33;109590;1257;67471;-84
2023/05/17 11:47:04;;;;;;;13.10;6.60;;;;;;;20.84;52.00;100297.67;109586;1257;67557;-84
2023/05/17 11:49:32;;;;;;;11.60;6.80;;;;;;;20.89;52.21;100293.83;109317;1259;256688;-84
2023/05/17 11:51:58;;;;;;;9.70;7.50;;;;;;;20.92;52.07;100292.23;109578;1259;81722;-85
2023/05/17 11:54:24;;;;;;;11.50;8.00;;;;;;;20.92;52.01;100285.38;109502;1259;67799;-84
2023/05/17 11:56:52;;;;;;;12.70;8.10;;;;;;;20.93;51.71;100280.37;109460;1260;67763;-85
2023/05/17 11:59:21;;;;;;;9.70;7.10;;;;;;;20.93;51.59;100279.23;109337;1260;67727;-84
2023/05/17 12:01:48;;;;;;;15.40;7.30;;;;;;;20.93;51.40;100279.09;109425;1259;75019;-84
2023/05/17 12:04:13;;;;;;;12.20;7.80;;;;;;;20.93;51.40;100276.99;109560;1260;67623;-84
2023/05/17 12:06:39;;;;;;;10.70;7.90;;;;;;;20.91;51.46;100271.06;109344;1260;67676;-88
2023/05/17 12:09:09;;;;;;;13.70;8.00;;;;;;;20.91;51.56;100263.40;109396;1260;67656;-84
2023/05/17 12:11:35;;;;;;;13.00;8.90;;;;;;;20.90;51.55;100264.42;109347;1260;67567;-85
2023/05/17 12:14:01;;;;;;;17.60;8.80;;;;;;;20.87;51.49;100258.34;109409;1260;67519;-89
2023/05/17 12:16:26;;;;;;;14.20;9.20;;;;;;;20.85;51.45;100253.23;109536;1260;67876;-88
2023/05/17 12:18:52;;;;;;;16.60;9.10;;;;;;;20.83;51.40;100248.83;109508;1260;68046;-89
2023/05/17 12:21:20;;;;;;;14.20;8.80;;;;;;;20.82;51.58;100247.30;109534;1260;67448;-87
2023/05/17 12:23:46;;;;;;;11.90;8.70;;;;;;;20.81;51.63;100242.77;109621;1260;67403;-88
2023/05/17 12:26:11;;;;;;;14.80;9.10;;;;;;;20.79;51.41;100238.88;109498;1260;67502;-87
2023/05/17 12:28:59;;;;;;;14.50;8.80;;;;;;;20.77;51.64;100235.04;109587;1259;67572;-87
2023/05/17 12:31:25;;;;;;;14.50;8.50;;;;;;;20.75;51.75;100229.31;109497;1260;73361;-87
2023/05/17 12:33:51;;;;;;;14.60;9.60;;;;;;;20.75;51.76;100227.05;109551;1260;67584;-86
2023/05/17 12:36:23;;;;;;;12.90;8.90;;;;;;;20.74;51.72;100225.41;109523;1260;67312;-87
2023/05/17 12:38:51;;;;;;;12.50;8.40;;;;;;;20.73;51.71;100221.08;109439;1260;75174;-87
2023/05/17 12:41:17;;;;;;;12.70;8.50;;;;;;;20.74;51.78;100224.09;109423;1260;82729;-87
2023/05/17 12:43:43;;;;;;;12.20;8.00;;;;;;;20.76;52.12;100217.80;109353;1260;67586;-86
2023/05/17 12:46:17;;;;;;;24.20;10.80;;;;;;;20.77;51.93;100213.83;109336;1260;66899;-87
2023/05/17 12:48:43;;;;;;;16.30;11.10;;;;;;;20.78;51.88;100214.17;109346;1259;67085;-92
2023/05/17 12:51:12;;;;;;;19.70;11.70;;;;;;;20.78;51.93;100215.66;109318;1260;67630;-87
2023/05/17 12:53:56;;;;;;;27.50;23.30;;;;;;;20.76;51.99;100209.48;109353;1260;82857;-87
2023/05/17 12:56:31;;;;;;;30.80;21.60;;;;;;;20.76;51.94;100204.41;109317;1260;71566;-87
2023/05/17 12:59:04;;;;;;;30.70;20.30;;;;;;;20.76;52.08;100200.67;109305;1260;67043;-87
2023/05/17 13:01:38;;;;;;;29.80;22.10;;;;;;;20.75;52.09;100200.16;109401;1259;67494;-87
2023/05/17 13:04:04;;;;;;;28.20;21.00;;;;;;;20.75;52.05;100197.90;109341;1259;75534;-87
2023/05/17 13:09:03;;;;;;;25.10;18.40;;;;;;;20.73;52.12;100190.23;109546;1257;73159;-87
2023/05/17 13:11:34;;;;;;;24.70;19.30;;;;;;;20.71;51.89;100188.91;109365;1257;67683;-87
2023/05/17 13:14:00;;;;;;;23.70;18.60;;;;;;;20.72;51.96;100186.71;109466;1257;67601;-87
2023/05/17 13:16:38;;;;;;;22.80;17.10;;;;;;;20.72;51.88;100182.77;109460;1257;75173;-87
2023/05/17 13:19:13;;;;;;;18.50;14.70;;;;;;;20.71;52.07;100181.85;109590;1257;83072;-87
2023/05/17 13:21:39;;;;;;;23.40;15.70;;;;;;;20.70;52.20;100177.98;109521;1258;72354;-88
2023/05/17 13:24:04;;;;;;;23.80;15.90;;;;;;;20.71;52.19;100177.36;109389;1257;67546;-87
2023/05/17 13:26:30;;;;;;;17.80;14.30;;;;;;;20.71;52.06;100179.20;109375;1257;67647;-87
2023/05/17 13:28:57;;;;;;;22.40;14.60;;;;;;;20.72;52.04;100177.00;109481;1257;67476;-87
2023/05/17 13:31:24;;;;;;;22.00;13.80;;;;;;;20.72;52.28;100176.85;109429;1257;67865;-86
2023/05/17 13:33:50;;;;;;;20.70;12.90;;;;;;;20.71;51.86;100177.05;109647;1258;67760;-87
2023/05/17 13:36:16;;;;;;;25.10;11.90;;;;;;;20.71;52.16;100174.91;109613;1257;67567;-86
2023/05/17 13:38:41;;;;;;;23.30;11.10;;;;;;;20.71;52.19;100179.41;109754;1257;67666;-87
2023/05/17 13:41:10;;;;;;;19.00;8.90;;;;;;;20.71;52.09;100177.73;109705;1257;68031;-87
2023/05/17 13:43:35;;;;;;;19.20;9.20;;;;;;;20.70;52.14;100180.23;109681;1257;72371;-87
2023/05/17 13:46:02;;;;;;;17.20;8.80;;;;;;;20.70;52.13;100180.29;109575;1257;67366;-86
2023/05/17 13:48:31;;;;;;;17.20;8.20;;;;;;;20.69;52.11;100181.27;109668;1258;67588;-92
2023/05/17 13:50:57;;;;;;;14.10;8.10;;;;;;;20.67;51.98;100188.59;109557;1259;76027;-87
2023/05/17 13:53:22;;;;;;;12.50;6.90;;;;;;;20.66;52.11;100186.95;109553;1260;67392;-87
2023/05/17 13:55:48;;;;;;;20.20;6.70;;;;;;;20.65;52.03;100187.41;109427;1260;67696;-86
2023/05/17 13:58:15;;;;;;;11.20;6.20;;;;;;;20.64;51.95;100189.00;109497;1260;67565;-87
2023/05/17 14:00:42;;;;;;;10.70;6.30;;;;;;;20.63;51.64;100189.71;109452;1261;67580;-87
2023/05/17 14:03:08;;;;;;;12.80;6.30;;;;;;;20.62;51.45;100191.70;109433;1260;67873;-87
2023/05/17 14:05:35;;;;;;;9.00;6.30;;;;;;;20.61;51.40;100188.23;109413;1261;67059;-87
2023/05/17 14:08:01;;;;;;;10.10;6.00;;;;;;;20.60;51.13;100191.92;109344;1260;67637;-87
2023/05/17 14:10:27;;;;;;;10.00;5.70;;;;;;;20.60;50.96;100193.09;109270;1264;67626;-87
2023/05/17 14:12:52;;;;;;;8.20;5.90;;;;;;;20.59;50.74;100197.23;109458;1260;66993;-88
2023/05/17 14:15:27;;;;;;;10.60;6.30;;;;;;;20.58;50.49;100196.06;109512;1260;67346;-92
2023/05/17 14:17:53;;;;;;;9.40;6.00;;;;;;;20.58;50.29;100196.88;109373;1260;72184;-87
2023/05/17 14:20:18;;;;;;;11.10;7.10;;;;;;;20.58;50.19;100195.70;109439;1260;67644;-86
2023/05/17 14:22:44;;;;;;;11.60;6.00;;;;;;;20.59;50.26;100192.99;109464;1260;67681;-87
2023/05/17 14:25:30;;;;;;;;;;;;;;;;;;;;;
2023/05/17 14:28:25;;;;;;;10.20;7.00;;;;;;;20.62;50.32;100190.43;108984;1264;81558;-88
2023/05/17 14:31:22;;;;;;;13.20;6.80;;;;;;;20.63;50.25;100192.37;108991;1264;73229;-88
2023/05/17 14:33:58;;;;;;;12.00;7.40;;;;;;;20.64;50.28;100194.83;108969;1264;67811;-87
2023/05/17 14:36:26;;;;;;;13.00;7.30;;;;;;;20.64;50.25;100190.23;108965;1264;67015;-89
2023/05/17 14:38:58;;;;;;;9.50;7.00;;;;;;;20.64;50.24;100186.14;109098;1264;76548;-88
2023/05/17 14:41:54;;;;;;;9.50;6.60;;;;;;;20.64;50.18;100184.75;109263;1260;82775;-88
2023/05/17 14:44:45;;;;;;;9.00;7.20;;;;;;;20.64;50.22;100183.94;109282;1260;73653;-88
2023/05/17 14:47:13;;;;;;;10.10;6.90;;;;;;;20.65;50.34;100180.92;109292;1265;67538;-88
2023/05/17 14:49:52;;;;;;;9.70;6.90;;;;;;;20.64;50.16;100177.95;109421;1260;67627;-88
2023/05/17 14:52:27;;;;;;;8.60;6.60;;;;;;;20.65;50.14;100180.65;109344;1259;73858;-88